sensor_id;sensor_type;location;lat;lon;timestamp;temperature;humidity
19552;DHT22;9921;47.186;9.778;2023-04-03T00:00:55;8.90;99.90
19552;DHT22;9921;47.186;9.778;2023-04-03T00:03:22;8.90;99.90
19552;DHT22;9921;47.186;9.778;2023-04-03T00:05:49;8.90;99.90
19552;DHT22;9921;47.186;9.778;2023-04-03T00:08:16;8.80;99.90
19552;DHT22;9921;47.186;9.778;2023-04-03T00:10:43;8.80;99.90
19552;DHT22;9921;47.186;9.778;2023-04-03T00:13:12;8.80;99.90
19552;DHT22;9921;47.186;9.778;2023-04-03T00:15:39;8.80;99.90
19552;DHT22;9921;47.186;9.778;2023-04-03T00:18:06;8.80;99.90
19552;DHT22;9921;47.186;9.778;2023-04-03T00:20:34;8.80;99.90
19552;DHT22;9921;47.186;9.778;2023-04-03T00:23:01;8.70;99.90
19552;DHT22;9921;47.186;9.778;2023-04-03T00:25:28;8.70;99.90
19552;DHT22;9921;47.186;9.778;2023-04-03T00:27:55;8.70;99.90
19552;DHT22;9921;47.186;9.778;2023-04-03T00:30:23;8.60;99.90
19552;DHT22;9921;47.186;9.778;2023-04-03T00:32:51;8.60;99.90
19552;DHT22;9921;47.186;9.778;2023-04-03T00:35:20;8.60;99.90
19552;DHT22;9921;47.186;9.778;2023-04-03T00:37:47;8.50;99.90
19552;DHT22;9921;47.186;9.778;2023-04-03T00:40:15;8.40;99.90
19552;DHT22;9921;47.186;9.778;2023-04-03T00:42:43;8.40;99.90
19552;DHT22;9921;47.186;9.778;2023-04-03T00:45:33;8.40;99.90
19552;DHT22;9921;47.186;9.778;2023-04-03T00:48:03;8.30;99.90
19552;DHT22;9921;47.186;9.778;2023-04-03T00:50:34;8.30;99.90
19552;DHT22;9921;47.186;9.778;2023-04-03T00:53:02;8.30;99.90
19552;DHT22;9921;47.186;9.778;2023-04-03T00:55:30;8.30;99.90
19552;DHT22;9921;47.186;9.778;2023-04-03T00:57:58;8.30;99.90
19552;DHT22;9921;47.186;9.778;2023-04-03T01:00:26;8.20;99.90
19552;DHT22;9921;47.186;9.778;2023-04-03T01:02:55;8.10;99.90
19552;DHT22;9921;47.186;9.778;2023-04-03T01:05:22;8.10;99.90
19552;DHT22;9921;47.186;9.778;2023-04-03T01:07:50;8.00;99.90
19552;DHT22;9921;47.186;9.778;2023-04-03T01:10:18;7.90;99.90
19552;DHT22;9921;47.186;9.778;2023-04-03T01:12:47;7.90;99.90
19552;DHT22;9921;47.186;9.778;2023-04-03T01:15:17;8.00;99.90
19552;DHT22;9921;47.186;9.778;2023-04-03T01:17:46;8.00;99.90
19552;DHT22;9921;47.186;9.778;2023-04-03T01:23:25;8.00;99.90
19552;DHT22;9921;47.186;9.778;2023-04-03T01:25:55;8.00;99.90
19552;DHT22;9921;47.186;9.778;2023-04-03T01:28:24;7.90;99.90
19552;DHT22;9921;47.186;9.778;2023-04-03T01:30:59;7.90;99.90
19552;DHT22;9921;47.186;9.778;2023-04-03T01:33:28;7.90;99.90
19552;DHT22;9921;47.186;9.778;2023-04-03T01:35:55;8.00;99.90
19552;DHT22;9921;47.186;9.778;2023-04-03T01:38:22;8.00;99.90
19552;DHT22;9921;47.186;9.778;2023-04-03T01:40:49;8.00;99.90
19552;DHT22;9921;47.186;9.778;2023-04-03T01:43:16;8.00;99.90
19552;DHT22;9921;47.186;9.778;2023-04-03T01:45:43;7.90;99.90
19552;DHT22;9921;47.186;9.778;2023-04-03T01:48:12;7.90;99.90
19552;DHT22;9921;47.186;9.778;2023-04-03T01:50:40;7.80;99.90
19552;DHT22;9921;47.186;9.778;2023-04-03T01:53:07;7.80;99.90
19552;DHT22;9921;47.186;9.778;2023-04-03T01:55:34;7.70;99.90
19552;DHT22;9921;47.186;9.778;2023-04-03T01:58:00;7.60;99.90
19552;DHT22;9921;47.186;9.778;2023-04-03T02:00:27;7.60;99.90
19552;DHT22;9921;47.186;9.778;2023-04-03T02:02:55;7.60;99.90
19552;DHT22;9921;47.186;9.778;2023-04-03T02:05:22;7.60;99.90
19552;DHT22;9921;47.186;9.778;2023-04-03T02:07:50;7.60;99.90
19552;DHT22;9921;47.186;9.778;2023-04-03T02:10:17;7.60;99.90
19552;DHT22;9921;47.186;9.778;2023-04-03T02:12:44;7.60;99.90
19552;DHT22;9921;47.186;9.778;2023-04-03T02:15:11;7.50;99.90
19552;DHT22;9921;47.186;9.778;2023-04-03T02:17:38;7.60;99.90
19552;DHT22;9921;47.186;9.778;2023-04-03T02:20:06;7.50;99.90
19552;DHT22;9921;47.186;9.778;2023-04-03T02:22:34;7.40;99.90
19552;DHT22;9921;47.186;9.778;2023-04-03T02:25:02;7.40;99.90
19552;DHT22;9921;47.186;9.778;2023-04-03T02:27:29;7.50;99.90
19552;DHT22;9921;47.186;9.778;2023-04-03T02:29:57;7.50;99.90
19552;DHT22;9921;47.186;9.778;2023-04-03T02:32:24;7.50;99.90
19552;DHT22;9921;47.186;9.778;2023-04-03T02:34:50;7.50;99.90
19552;DHT22;9921;47.186;9.778;2023-04-03T02:37:17;7.50;99.90
19552;DHT22;9921;47.186;9.778;2023-04-03T02:39:44;7.40;99.90
19552;DHT22;9921;47.186;9.778;2023-04-03T02:42:13;7.30;99.90
19552;DHT22;9921;47.186;9.778;2023-04-03T02:44:40;7.30;99.90
19552;DHT22;9921;47.186;9.778;2023-04-03T02:47:07;7.20;99.90
19552;DHT22;9921;47.186;9.778;2023-04-03T02:49:33;7.10;99.90
19552;DHT22;9921;47.186;9.778;2023-04-03T02:52:00;7.00;99.90
19552;DHT22;9921;47.186;9.778;2023-04-03T02:54:27;6.90;99.90
19552;DHT22;9921;47.186;9.778;2023-04-03T02:56:56;6.90;99.90
19552;DHT22;9921;47.186;9.778;2023-04-03T02:59:24;6.90;99.90
19552;DHT22;9921;47.186;9.778;2023-04-03T03:01:51;6.90;99.90
19552;DHT22;9921;47.186;9.778;2023-04-03T03:04:18;6.90;99.90
19552;DHT22;9921;47.186;9.778;2023-04-03T03:06:46;6.90;99.90
19552;DHT22;9921;47.186;9.778;2023-04-03T03:09:14;7.00;99.90
19552;DHT22;9921;47.186;9.778;2023-04-03T03:11:40;6.90;99.90
19552;DHT22;9921;47.186;9.778;2023-04-03T03:14:07;7.00;99.90
19552;DHT22;9921;47.186;9.778;2023-04-03T03:16:36;6.90;99.90
19552;DHT22;9921;47.186;9.778;2023-04-03T03:19:03;7.00;99.90
19552;DHT22;9921;47.186;9.778;2023-04-03T03:21:30;7.00;99.90
19552;DHT22;9921;47.186;9.778;2023-04-03T03:23:56;7.00;99.90
19552;DHT22;9921;47.186;9.778;2023-04-03T03:26:23;6.90;99.90
19552;DHT22;9921;47.186;9.778;2023-04-03T03:28:50;6.80;99.90
19552;DHT22;9921;47.186;9.778;2023-04-03T03:31:17;6.80;99.90
19552;DHT22;9921;47.186;9.778;2023-04-03T03:33:46;6.70;99.90
19552;DHT22;9921;47.186;9.778;2023-04-03T03:36:13;6.60;99.90
19552;DHT22;9921;47.186;9.778;2023-04-03T03:38:40;6.60;99.90
19552;DHT22;9921;47.186;9.778;2023-04-03T03:41:06;6.60;99.90
19552;DHT22;9921;47.186;9.778;2023-04-03T03:43:33;6.60;99.90
19552;DHT22;9921;47.186;9.778;2023-04-03T03:46:00;6.60;99.90
19552;DHT22;9921;47.186;9.778;2023-04-03T03:48:27;6.60;99.90
19552;DHT22;9921;47.186;9.778;2023-04-03T03:50:55;6.50;99.90
19552;DHT22;9921;47.186;9.778;2023-04-03T03:53:22;6.40;99.90
19552;DHT22;9921;47.186;9.778;2023-04-03T03:55:49;6.30;99.90
19552;DHT22;9921;47.186;9.778;2023-04-03T03:58:16;6.30;99.90
19552;DHT22;9921;47.186;9.778;2023-04-03T04:00:43;6.30;99.90
19552;DHT22;9921;47.186;9.778;2023-04-03T04:03:10;6.20;99.90
19552;DHT22;9921;47.186;9.778;2023-04-03T04:05:36;6.30;99.90
19552;DHT22;9921;47.186;9.778;2023-04-03T04:08:05;6.30;99.90
19552;DHT22;9921;47.186;9.778;2023-04-03T04:10:32;6.30;99.90
19552;DHT22;9921;47.186;9.778;2023-04-03T04:12:59;6.30;99.90
19552;DHT22;9921;47.186;9.778;2023-04-03T04:15:26;6.20;99.90
19552;DHT22;9921;47.186;9.778;2023-04-03T04:17:53;6.10;99.90
19552;DHT22;9921;47.186;9.778;2023-04-03T04:20:19;6.10;99.90
19552;DHT22;9921;47.186;9.778;2023-04-03T04:22:46;6.00;99.90
19552;DHT22;9921;47.186;9.778;2023-04-03T04:25:15;6.00;99.90
19552;DHT22;9921;47.186;9.778;2023-04-03T04:27:41;5.90;99.90
19552;DHT22;9921;47.186;9.778;2023-04-03T04:30:09;5.90;99.90
19552;DHT22;9921;47.186;9.778;2023-04-03T04:32:37;5.90;99.90
19552;DHT22;9921;47.186;9.778;2023-04-03T04:35:04;5.90;99.90
19552;DHT22;9921;47.186;9.778;2023-04-03T04:37:31;5.90;99.90
19552;DHT22;9921;47.186;9.778;2023-04-03T04:39:58;5.90;99.90
19552;DHT22;9921;47.186;9.778;2023-04-03T04:42:26;5.90;99.90
19552;DHT22;9921;47.186;9.778;2023-04-03T04:44:53;5.90;99.90
19552;DHT22;9921;47.186;9.778;2023-04-03T04:47:20;5.80;99.90
19552;DHT22;9921;47.186;9.778;2023-04-03T04:49:47;5.90;99.90
19552;DHT22;9921;47.186;9.778;2023-04-03T04:52:14;5.90;99.90
19552;DHT22;9921;47.186;9.778;2023-04-03T04:54:41;5.90;99.90
19552;DHT22;9921;47.186;9.778;2023-04-03T04:57:08;5.90;99.90
19552;DHT22;9921;47.186;9.778;2023-04-03T04:59:37;5.90;99.90
19552;DHT22;9921;47.186;9.778;2023-04-03T05:02:04;5.80;99.90
19552;DHT22;9921;47.186;9.778;2023-04-03T05:04:31;5.80;99.90
19552;DHT22;9921;47.186;9.778;2023-04-03T05:06:58;5.70;99.90
19552;DHT22;9921;47.186;9.778;2023-04-03T05:09:26;5.70;99.90
19552;DHT22;9921;47.186;9.778;2023-04-03T05:11:52;5.70;99.90
19552;DHT22;9921;47.186;9.778;2023-04-03T05:14:20;5.80;99.90
19552;DHT22;9921;47.186;9.778;2023-04-03T05:16:48;5.80;99.90
19552;DHT22;9921;47.186;9.778;2023-04-03T05:19:18;5.80;99.90
19552;DHT22;9921;47.186;9.778;2023-04-03T05:21:45;5.70;99.90
19552;DHT22;9921;47.186;9.778;2023-04-03T05:24:12;5.70;99.90
19552;DHT22;9921;47.186;9.778;2023-04-03T05:26:39;5.80;99.90
19552;DHT22;9921;47.186;9.778;2023-04-03T05:29:06;5.80;99.90
19552;DHT22;9921;47.186;9.778;2023-04-03T05:31:32;5.90;99.90
19552;DHT22;9921;47.186;9.778;2023-04-03T05:34:01;5.80;99.90
19552;DHT22;9921;47.186;9.778;2023-04-03T05:36:28;5.70;99.90
19552;DHT22;9921;47.186;9.778;2023-04-03T05:38:55;5.70;99.90
19552;DHT22;9921;47.186;9.778;2023-04-03T05:41:23;5.70;99.90
19552;DHT22;9921;47.186;9.778;2023-04-03T05:43:50;5.90;99.90
19552;DHT22;9921;47.186;9.778;2023-04-03T05:46:19;6.00;99.90
19552;DHT22;9921;47.186;9.778;2023-04-03T05:48:46;6.10;99.90
19552;DHT22;9921;47.186;9.778;2023-04-03T05:51:16;6.20;99.90
19552;DHT22;9921;47.186;9.778;2023-04-03T05:53:44;6.10;99.90
19552;DHT22;9921;47.186;9.778;2023-04-03T05:56:11;6.10;99.90
19552;DHT22;9921;47.186;9.778;2023-04-03T05:58:38;6.10;99.90
19552;DHT22;9921;47.186;9.778;2023-04-03T06:01:05;6.20;99.90
19552;DHT22;9921;47.186;9.778;2023-04-03T06:03:32;6.30;99.90
19552;DHT22;9921;47.186;9.778;2023-04-03T06:05:59;6.30;99.90
19552;DHT22;9921;47.186;9.778;2023-04-03T06:08:27;6.40;99.90
19552;DHT22;9921;47.186;9.778;2023-04-03T06:10:54;6.40;99.90
19552;DHT22;9921;47.186;9.778;2023-04-03T06:13:21;6.40;99.90
19552;DHT22;9921;47.186;9.778;2023-04-03T06:15:49;6.40;99.90
19552;DHT22;9921;47.186;9.778;2023-04-03T06:18:16;6.40;99.90
19552;DHT22;9921;47.186;9.778;2023-04-03T06:20:42;6.40;99.90
19552;DHT22;9921;47.186;9.778;2023-04-03T06:23:10;6.50;99.90
19552;DHT22;9921;47.186;9.778;2023-04-03T06:25:38;6.40;99.90
19552;DHT22;9921;47.186;9.778;2023-04-03T06:28:06;6.40;99.90
19552;DHT22;9921;47.186;9.778;2023-04-03T06:30:34;6.30;99.90
19552;DHT22;9921;47.186;9.778;2023-04-03T06:33:02;6.30;99.90
19552;DHT22;9921;47.186;9.778;2023-04-03T06:35:29;6.20;99.90
19552;DHT22;9921;47.186;9.778;2023-04-03T06:37:56;6.00;99.90
19552;DHT22;9921;47.186;9.778;2023-04-03T06:40:24;6.10;99.90
19552;DHT22;9921;47.186;9.778;2023-04-03T06:42:52;6.00;99.90
19552;DHT22;9921;47.186;9.778;2023-04-03T06:45:20;6.10;99.90
19552;DHT22;9921;47.186;9.778;2023-04-03T06:47:47;6.10;99.90
19552;DHT22;9921;47.186;9.778;2023-04-03T06:50:14;6.10;99.90
19552;DHT22;9921;47.186;9.778;2023-04-03T06:52:41;6.20;99.90
19552;DHT22;9921;47.186;9.778;2023-04-03T06:55:08;6.20;99.90
19552;DHT22;9921;47.186;9.778;2023-04-03T06:57:35;6.30;99.90
19552;DHT22;9921;47.186;9.778;2023-04-03T07:00:06;6.40;99.90
19552;DHT22;9921;47.186;9.778;2023-04-03T07:02:34;6.30;99.90
19552;DHT22;9921;47.186;9.778;2023-04-03T07:05:01;6.30;99.90
19552;DHT22;9921;47.186;9.778;2023-04-03T07:07:29;6.40;99.90
19552;DHT22;9921;47.186;9.778;2023-04-03T07:09:55;6.40;99.90
19552;DHT22;9921;47.186;9.778;2023-04-03T07:12:22;6.50;99.90
19552;DHT22;9921;47.186;9.778;2023-04-03T07:14:49;6.40;99.90
19552;DHT22;9921;47.186;9.778;2023-04-03T07:17:17;6.40;99.90
19552;DHT22;9921;47.186;9.778;2023-04-03T07:19:45;6.30;99.90
19552;DHT22;9921;47.186;9.778;2023-04-03T07:22:11;6.20;99.90
19552;DHT22;9921;47.186;9.778;2023-04-03T07:24:38;6.20;99.90
19552;DHT22;9921;47.186;9.778;2023-04-03T07:27:05;6.30;99.90
19552;DHT22;9921;47.186;9.778;2023-04-03T07:29:33;6.30;99.90
19552;DHT22;9921;47.186;9.778;2023-04-03T07:32:00;6.30;99.90
19552;DHT22;9921;47.186;9.778;2023-04-03T07:34:29;6.30;99.90
19552;DHT22;9921;47.186;9.778;2023-04-03T07:36:56;6.30;99.90
19552;DHT22;9921;47.186;9.778;2023-04-03T07:39:23;6.20;99.90
19552;DHT22;9921;47.186;9.778;2023-04-03T07:41:50;6.30;99.90
19552;DHT22;9921;47.186;9.778;2023-04-03T07:44:17;6.30;99.90
19552;DHT22;9921;47.186;9.778;2023-04-03T07:46:44;6.40;99.90
19552;DHT22;9921;47.186;9.778;2023-04-03T07:49:12;6.40;99.90
19552;DHT22;9921;47.186;9.778;2023-04-03T07:51:40;6.40;99.90
19552;DHT22;9921;47.186;9.778;2023-04-03T07:54:07;6.40;99.90
19552;DHT22;9921;47.186;9.778;2023-04-03T07:56:34;6.30;99.90
19552;DHT22;9921;47.186;9.778;2023-04-03T07:59:01;6.30;99.90
19552;DHT22;9921;47.186;9.778;2023-04-03T08:01:28;6.30;99.90
19552;DHT22;9921;47.186;9.778;2023-04-03T08:03:57;6.20;99.90
19552;DHT22;9921;47.186;9.778;2023-04-03T08:06:24;6.30;99.90
19552;DHT22;9921;47.186;9.778;2023-04-03T08:08:53;6.30;99.90
19552;DHT22;9921;47.186;9.778;2023-04-03T08:11:20;6.20;99.90
19552;DHT22;9921;47.186;9.778;2023-04-03T08:13:47;6.10;99.90
19552;DHT22;9921;47.186;9.778;2023-04-03T08:16:17;6.20;99.90
19552;DHT22;9921;47.186;9.778;2023-04-03T08:18:44;6.20;99.90
19552;DHT22;9921;47.186;9.778;2023-04-03T08:21:12;6.30;99.90
19552;DHT22;9921;47.186;9.778;2023-04-03T08:23:39;6.30;99.90
19552;DHT22;9921;47.186;9.778;2023-04-03T08:26:09;6.30;99.90
19552;DHT22;9921;47.186;9.778;2023-04-03T08:28:36;6.30;99.90
19552;DHT22;9921;47.186;9.778;2023-04-03T08:31:04;6.30;99.90
19552;DHT22;9921;47.186;9.778;2023-04-03T08:33:32;6.30;99.90
19552;DHT22;9921;47.186;9.778;2023-04-03T08:35:59;6.30;99.90
19552;DHT22;9921;47.186;9.778;2023-04-03T08:38:26;6.40;99.90
19552;DHT22;9921;47.186;9.778;2023-04-03T08:41:01;6.40;99.90
19552;DHT22;9921;47.186;9.778;2023-04-03T08:43:36;6.50;99.90
19552;DHT22;9921;47.186;9.778;2023-04-03T08:46:11;6.50;99.90
19552;DHT22;9921;47.186;9.778;2023-04-03T08:48:41;6.50;99.90
19552;DHT22;9921;47.186;9.778;2023-04-03T08:51:12;6.60;99.90
19552;DHT22;9921;47.186;9.778;2023-04-03T08:53:43;6.50;99.90
19552;DHT22;9921;47.186;9.778;2023-04-03T08:56:12;6.40;99.90
19552;DHT22;9921;47.186;9.778;2023-04-03T08:58:46;6.40;99.90
19552;DHT22;9921;47.186;9.778;2023-04-03T09:01:19;6.40;99.90
19552;DHT22;9921;47.186;9.778;2023-04-03T09:03:46;6.50;99.90
19552;DHT22;9921;47.186;9.778;2023-04-03T09:06:15;6.60;99.90
19552;DHT22;9921;47.186;9.778;2023-04-03T09:08:45;6.70;99.90
19552;DHT22;9921;47.186;9.778;2023-04-03T09:11:19;6.70;99.90
19552;DHT22;9921;47.186;9.778;2023-04-03T09:13:54;6.60;99.90
19552;DHT22;9921;47.186;9.778;2023-04-03T09:16:33;6.70;99.90
19552;DHT22;9921;47.186;9.778;2023-04-03T09:19:09;6.70;99.90
19552;DHT22;9921;47.186;9.778;2023-04-03T09:21:39;6.50;99.90
19552;DHT22;9921;47.186;9.778;2023-04-03T09:24:09;6.50;99.90
19552;DHT22;9921;47.186;9.778;2023-04-03T09:26:41;6.50;99.90
19552;DHT22;9921;47.186;9.778;2023-04-03T09:29:15;6.40;99.90
19552;DHT22;9921;47.186;9.778;2023-04-03T09:31:44;6.50;99.90
19552;DHT22;9921;47.186;9.778;2023-04-03T09:34:18;6.50;99.90
19552;DHT22;9921;47.186;9.778;2023-04-03T09:36:47;6.50;99.90
19552;DHT22;9921;47.186;9.778;2023-04-03T09:39:16;6.60;99.90
19552;DHT22;9921;47.186;9.778;2023-04-03T09:41:59;6.60;99.90
19552;DHT22;9921;47.186;9.778;2023-04-03T09:44:30;6.50;99.90
19552;DHT22;9921;47.186;9.778;2023-04-03T09:46:58;6.40;99.90
19552;DHT22;9921;47.186;9.778;2023-04-03T09:49:26;6.40;99.90
19552;DHT22;9921;47.186;9.778;2023-04-03T09:51:53;6.50;99.90
19552;DHT22;9921;47.186;9.778;2023-04-03T09:54:32;6.60;99.90
19552;DHT22;9921;47.186;9.778;2023-04-03T09:57:03;6.60;99.90
19552;DHT22;9921;47.186;9.778;2023-04-03T09:59:33;6.70;99.90
19552;DHT22;9921;47.186;9.778;2023-04-03T10:02:02;6.70;99.90
19552;DHT22;9921;47.186;9.778;2023-04-03T10:04:38;6.70;99.90
19552;DHT22;9921;47.186;9.778;2023-04-03T10:07:26;6.70;99.90
19552;DHT22;9921;47.186;9.778;2023-04-03T10:09:55;6.80;99.90
19552;DHT22;9921;47.186;9.778;2023-04-03T10:12:22;6.80;99.90
19552;DHT22;9921;47.186;9.778;2023-04-03T10:14:56;6.80;99.90
19552;DHT22;9921;47.186;9.778;2023-04-03T10:17:31;6.80;99.90
19552;DHT22;9921;47.186;9.778;2023-04-03T10:20:07;6.80;99.90
19552;DHT22;9921;47.186;9.778;2023-04-03T10:22:40;6.90;99.90
19552;DHT22;9921;47.186;9.778;2023-04-03T10:25:17;6.90;99.90
19552;DHT22;9921;47.186;9.778;2023-04-03T10:27:53;7.00;99.90
19552;DHT22;9921;47.186;9.778;2023-04-03T10:30:32;7.00;99.90
19552;DHT22;9921;47.186;9.778;2023-04-03T10:33:19;6.90;99.90
19552;DHT22;9921;47.186;9.778;2023-04-03T10:35:58;6.90;99.90
19552;DHT22;9921;47.186;9.778;2023-04-03T10:38:33;6.90;99.90
19552;DHT22;9921;47.186;9.778;2023-04-03T10:41:12;6.90;99.90
19552;DHT22;9921;47.186;9.778;2023-04-03T10:43:44;6.80;99.90
19552;DHT22;9921;47.186;9.778;2023-04-03T10:46:22;6.80;99.90
19552;DHT22;9921;47.186;9.778;2023-04-03T10:49:01;6.80;99.90
19552;DHT22;9921;47.186;9.778;2023-04-03T10:51:38;6.70;99.90
19552;DHT22;9921;47.186;9.778;2023-04-03T10:54:11;6.70;99.90
19552;DHT22;9921;47.186;9.778;2023-04-03T10:56:41;6.80;99.90
19552;DHT22;9921;47.186;9.778;2023-04-03T10:59:18;6.80;99.90
19552;DHT22;9921;47.186;9.778;2023-04-03T11:01:52;6.80;99.90
19552;DHT22;9921;47.186;9.778;2023-04-03T11:04:22;6.80;99.90
19552;DHT22;9921;47.186;9.778;2023-04-03T11:06:56;6.80;99.90
19552;DHT22;9921;47.186;9.778;2023-04-03T11:09:27;6.80;99.90
19552;DHT22;9921;47.186;9.778;2023-04-03T11:11:58;6.70;99.90
19552;DHT22;9921;47.186;9.778;2023-04-03T11:14:28;6.80;99.90
19552;DHT22;9921;47.186;9.778;2023-04-03T11:17:05;6.80;99.90
19552;DHT22;9921;47.186;9.778;2023-04-03T11:19:36;6.90;99.90
19552;DHT22;9921;47.186;9.778;2023-04-03T11:22:11;6.80;99.90
19552;DHT22;9921;47.186;9.778;2023-04-03T11:24:42;6.80;99.90
19552;DHT22;9921;47.186;9.778;2023-04-03T11:27:15;6.90;99.90
19552;DHT22;9921;47.186;9.778;2023-04-03T11:29:45;6.90;99.90
19552;DHT22;9921;47.186;9.778;2023-04-03T11:32:29;7.00;99.90
19552;DHT22;9921;47.186;9.778;2023-04-03T11:35:00;7.00;99.90
19552;DHT22;9921;47.186;9.778;2023-04-03T11:37:33;7.00;99.90
19552;DHT22;9921;47.186;9.778;2023-04-03T11:40:04;7.00;99.90
19552;DHT22;9921;47.186;9.778;2023-04-03T11:42:35;7.00;99.90
19552;DHT22;9921;47.186;9.778;2023-04-03T11:45:29;7.10;99.90
19552;DHT22;9921;47.186;9.778;2023-04-03T11:48:01;7.10;99.90
19552;DHT22;9921;47.186;9.778;2023-04-03T11:50:42;7.00;99.90
19552;DHT22;9921;47.186;9.778;2023-04-03T11:53:27;7.00;99.90
19552;DHT22;9921;47.186;9.778;2023-04-03T11:55:59;7.10;99.90
19552;DHT22;9921;47.186;9.778;2023-04-03T11:58:28;7.10;99.90
19552;DHT22;9921;47.186;9.778;2023-04-03T12:00:58;7.20;99.90
19552;DHT22;9921;47.186;9.778;2023-04-03T12:07:08;7.10;99.90
19552;DHT22;9921;47.186;9.778;2023-04-03T12:10:16;7.10;99.90
19552;DHT22;9921;47.186;9.778;2023-04-03T12:12:56;7.10;99.90
19552;DHT22;9921;47.186;9.778;2023-04-03T12:15:41;7.10;99.90
19552;DHT22;9921;47.186;9.778;2023-04-03T12:21:19;7.10;99.90
19552;DHT22;9921;47.186;9.778;2023-04-03T12:24:12;7.20;99.90
19552;DHT22;9921;47.186;9.778;2023-04-03T12:27:00;7.20;99.90
19552;DHT22;9921;47.186;9.778;2023-04-03T12:29:34;7.40;99.90
19552;DHT22;9921;47.186;9.778;2023-04-03T12:32:17;7.40;99.90
19552;DHT22;9921;47.186;9.778;2023-04-03T12:35:01;7.40;99.90
19552;DHT22;9921;47.186;9.778;2023-04-03T12:40:26;7.40;99.90
19552;DHT22;9921;47.186;9.778;2023-04-03T12:43:20;7.40;99.90
19552;DHT22;9921;47.186;9.778;2023-04-03T12:45:56;7.50;99.90
19552;DHT22;9921;47.186;9.778;2023-04-03T12:48:27;7.50;99.90
19552;DHT22;9921;47.186;9.778;2023-04-03T12:50:56;7.60;99.90
19552;DHT22;9921;47.186;9.778;2023-04-03T12:53:26;7.60;99.90
19552;DHT22;9921;47.186;9.778;2023-04-03T12:55:58;7.60;99.90
19552;DHT22;9921;47.186;9.778;2023-04-03T12:58:44;7.70;99.90
19552;DHT22;9921;47.186;9.778;2023-04-03T13:01:13;7.80;99.90
19552;DHT22;9921;47.186;9.778;2023-04-03T13:03:44;7.90;99.90
19552;DHT22;9921;47.186;9.778;2023-04-03T13:06:17;7.90;99.90
19552;DHT22;9921;47.186;9.778;2023-04-03T13:08:49;8.00;99.90
19552;DHT22;9921;47.186;9.778;2023-04-03T13:11:19;8.10;99.90
19552;DHT22;9921;47.186;9.778;2023-04-03T13:13:58;8.10;99.90
19552;DHT22;9921;47.186;9.778;2023-04-03T13:16:25;8.00;99.90
19552;DHT22;9921;47.186;9.778;2023-04-03T13:18:53;8.00;99.90
19552;DHT22;9921;47.186;9.778;2023-04-03T13:21:22;8.10;99.90
19552;DHT22;9921;47.186;9.778;2023-04-03T13:23:52;8.10;99.90
19552;DHT22;9921;47.186;9.778;2023-04-03T13:26:23;8.20;99.90
19552;DHT22;9921;47.186;9.778;2023-04-03T13:28:52;8.30;99.90
19552;DHT22;9921;47.186;9.778;2023-04-03T13:31:22;8.40;99.90
19552;DHT22;9921;47.186;9.778;2023-04-03T13:33:56;8.40;99.90
19552;DHT22;9921;47.186;9.778;2023-04-03T13:36:26;8.40;99.90
19552;DHT22;9921;47.186;9.778;2023-04-03T13:38:59;8.50;99.90
19552;DHT22;9921;47.186;9.778;2023-04-03T13:41:31;8.60;99.90
19552;DHT22;9921;47.186;9.778;2023-04-03T13:44:26;8.60;99.90
19552;DHT22;9921;47.186;9.778;2023-04-03T13:46:54;8.80;99.90
19552;DHT22;9921;47.186;9.778;2023-04-03T13:49:31;8.80;99.90
19552;DHT22;9921;47.186;9.778;2023-04-03T13:51:58;8.80;99.90
19552;DHT22;9921;47.186;9.778;2023-04-03T13:54:31;8.90;99.90
19552;DHT22;9921;47.186;9.778;2023-04-03T13:57:00;9.00;99.90
19552;DHT22;9921;47.186;9.778;2023-04-03T13:59:31;9.20;99.90
19552;DHT22;9921;47.186;9.778;2023-04-03T14:02:13;9.30;99.90
19552;DHT22;9921;47.186;9.778;2023-04-03T14:04:53;9.30;99.90
19552;DHT22;9921;47.186;9.778;2023-04-03T14:07:22;9.40;99.90
19552;DHT22;9921;47.186;9.778;2023-04-03T14:09:49;9.50;99.90
19552;DHT22;9921;47.186;9.778;2023-04-03T14:12:21;9.40;99.90
19552;DHT22;9921;47.186;9.778;2023-04-03T14:14:50;9.20;99.90
19552;DHT22;9921;47.186;9.778;2023-04-03T14:17:20;9.30;99.90
19552;DHT22;9921;47.186;9.778;2023-04-03T14:19:48;9.20;99.90
19552;DHT22;9921;47.186;9.778;2023-04-03T14:22:17;9.10;99.90
19552;DHT22;9921;47.186;9.778;2023-04-03T14:24:45;9.10;99.90
19552;DHT22;9921;47.186;9.778;2023-04-03T14:27:18;9.20;99.90
19552;DHT22;9921;47.186;9.778;2023-04-03T14:29:46;9.30;99.90
19552;DHT22;9921;47.186;9.778;2023-04-03T14:32:13;9.20;99.90
19552;DHT22;9921;47.186;9.778;2023-04-03T14:34:41;9.20;99.90
19552;DHT22;9921;47.186;9.778;2023-04-03T14:37:11;9.10;99.90
19552;DHT22;9921;47.186;9.778;2023-04-03T14:39:38;8.90;99.90
19552;DHT22;9921;47.186;9.778;2023-04-03T14:42:06;8.80;99.90
19552;DHT22;9921;47.186;9.778;2023-04-03T14:44:34;8.70;99.90
19552;DHT22;9921;47.186;9.778;2023-04-03T14:47:01;8.70;99.90
19552;DHT22;9921;47.186;9.778;2023-04-03T14:49:28;8.70;99.90
19552;DHT22;9921;47.186;9.778;2023-04-03T14:51:56;8.70;99.90
19552;DHT22;9921;47.186;9.778;2023-04-03T14:54:23;8.80;99.90
19552;DHT22;9921;47.186;9.778;2023-04-03T14:56:54;8.70;99.90
19552;DHT22;9921;47.186;9.778;2023-04-03T14:59:22;8.60;99.90
19552;DHT22;9921;47.186;9.778;2023-04-03T15:01:50;8.60;99.90
19552;DHT22;9921;47.186;9.778;2023-04-03T15:04:19;8.40;99.90
19552;DHT22;9921;47.186;9.778;2023-04-03T15:06:47;8.40;99.90
19552;DHT22;9921;47.186;9.778;2023-04-03T15:09:20;8.30;99.90
19552;DHT22;9921;47.186;9.778;2023-04-03T15:11:49;8.20;99.90
19552;DHT22;9921;47.186;9.778;2023-04-03T15:14:16;8.20;99.90
19552;DHT22;9921;47.186;9.778;2023-04-03T15:16:43;8.20;99.90
19552;DHT22;9921;47.186;9.778;2023-04-03T15:19:11;8.10;99.90
19552;DHT22;9921;47.186;9.778;2023-04-03T15:21:38;8.10;99.90
19552;DHT22;9921;47.186;9.778;2023-04-03T15:24:05;8.00;99.90
19552;DHT22;9921;47.186;9.778;2023-04-03T15:26:32;8.00;99.90
19552;DHT22;9921;47.186;9.778;2023-04-03T15:28:59;8.00;99.90
19552;DHT22;9921;47.186;9.778;2023-04-03T15:31:27;8.00;99.90
19552;DHT22;9921;47.186;9.778;2023-04-03T15:33:54;7.90;99.90
19552;DHT22;9921;47.186;9.778;2023-04-03T15:36:22;8.00;99.90
19552;DHT22;9921;47.186;9.778;2023-04-03T15:38:49;8.10;99.90
19552;DHT22;9921;47.186;9.778;2023-04-03T15:41:16;8.00;99.90
19552;DHT22;9921;47.186;9.778;2023-04-03T15:43:43;8.00;99.90
19552;DHT22;9921;47.186;9.778;2023-04-03T15:46:10;7.90;99.90
19552;DHT22;9921;47.186;9.778;2023-04-03T15:48:39;7.90;99.90
19552;DHT22;9921;47.186;9.778;2023-04-03T15:51:05;7.80;99.90
19552;DHT22;9921;47.186;9.778;2023-04-03T15:53:34;7.90;99.90
19552;DHT22;9921;47.186;9.778;2023-04-03T15:56:01;8.00;99.90
19552;DHT22;9921;47.186;9.778;2023-04-03T15:58:28;7.90;99.90
19552;DHT22;9921;47.186;9.778;2023-04-03T16:00:55;7.90;99.90
19552;DHT22;9921;47.186;9.778;2023-04-03T16:03:22;7.90;99.90
19552;DHT22;9921;47.186;9.778;2023-04-03T16:05:50;8.00;99.90
19552;DHT22;9921;47.186;9.778;2023-04-03T16:08:17;8.00;99.90
19552;DHT22;9921;47.186;9.778;2023-04-03T16:10:46;8.00;99.90
19552;DHT22;9921;47.186;9.778;2023-04-03T16:13:13;8.00;99.90
19552;DHT22;9921;47.186;9.778;2023-04-03T16:15:40;7.90;99.90
19552;DHT22;9921;47.186;9.778;2023-04-03T16:18:08;7.80;99.90
19552;DHT22;9921;47.186;9.778;2023-04-03T16:20:36;7.80;99.90
19552;DHT22;9921;47.186;9.778;2023-04-03T16:23:03;7.80;99.90
19552;DHT22;9921;47.186;9.778;2023-04-03T16:25:30;7.80;99.90
19552;DHT22;9921;47.186;9.778;2023-04-03T16:27:58;7.80;99.90
19552;DHT22;9921;47.186;9.778;2023-04-03T16:30:25;7.70;99.90